Portada
METAR-TAF:

METAR-TAF

Aeroports :

Comiso, Itàlia

latitud: 36-59-30N, longitud: 14-36-25E, altitud: 190 m

Observació

L'informe es va fer fa 3 hores i 32 minuts, a les 21:50 UTC
Vent 3 kt del Est
Temperatura 6°C
Humitat 100%
Pressió 1014 hPa
Visibilitat 10 km o més
sense núvols per sota de 1500 mi sense presència de cumulonimbus.

METAR: LICB 192150Z 08003KT CAVOK 06/06 Q1014

Hora: 02:22 (01:22 UTC)

Pronòstic

L'informe es va fer fa 5 hores i 3 minuts, a les 20:19 UTC
Pronòstic vàlid del 19 a les 21 UTC al 20 a les 06 UTC
Vent 4 kt amb direcció variable
Visibilitat 10 km o més
Núvols disperses a una alçada de 3000 ft

TAF: LICB 192019Z 1921/2006 VRB04KT 9999 SCT030

Observacions i pronòstics meteorològics de més de 4000 aeroports (METAR i TAF).

Les estacions disponibles són els punts grocs i vermells al mapa.

Posi el ratolí al punt desitjat per veure el nom de l'estació.

Feu clic per veure les observacions i els pronòstics meteorològics.

Per canviar el mapa: feu clic els botons verds amb una creu de color negre per apropar; al botó verd amb un guió per allunyar la imatge; o en les fletxes verdes per a mapes adjacents.


METAR-TAF: